sensor_id;sensor_type;location;lat;lon;timestamp;P1;durP1;ratioP1;P2;durP2;ratioP2
57385;SDS011;61487;56.494;21.014;2022-07-29T00:01:01;7.93;;;3.92;;
57385;SDS011;61487;56.494;21.014;2022-07-29T00:03:28;4.47;;;4.07;;
57385;SDS011;61487;56.494;21.014;2022-07-29T00:05:55;5.97;;;4.38;;
57385;SDS011;61487;56.494;21.014;2022-07-29T00:08:22;6.63;;;5.18;;
57385;SDS011;61487;56.494;21.014;2022-07-29T00:10:50;5.18;;;4.60;;
57385;SDS011;61487;56.494;21.014;2022-07-29T00:13:17;10.23;;;5.57;;
57385;SDS011;61487;56.494;21.014;2022-07-29T00:15:58;6.22;;;5.43;;
57385;SDS011;61487;56.494;21.014;2022-07-29T00:18:30;6.00;;;5.40;;
57385;SDS011;61487;56.494;21.014;2022-07-29T00:20:57;7.78;;;6.80;;
57385;SDS011;61487;56.494;21.014;2022-07-29T00:23:24;7.60;;;6.55;;
57385;SDS011;61487;56.494;21.014;2022-07-29T00:25:51;6.55;;;5.85;;
57385;SDS011;61487;56.494;21.014;2022-07-29T00:28:18;8.80;;;7.55;;
57385;SDS011;61487;56.494;21.014;2022-07-29T00:30:45;10.35;;;7.13;;
57385;SDS011;61487;56.494;21.014;2022-07-29T00:33:12;9.63;;;6.28;;
57385;SDS011;61487;56.494;21.014;2022-07-29T00:35:39;8.57;;;6.30;;
57385;SDS011;61487;56.494;21.014;2022-07-29T00:38:13;11.60;;;6.82;;
57385;SDS011;61487;56.494;21.014;2022-07-29T00:40:41;10.05;;;6.82;;
57385;SDS011;61487;56.494;21.014;2022-07-29T00:43:09;7.88;;;7.07;;
57385;SDS011;61487;56.494;21.014;2022-07-29T00:45:37;6.95;;;6.25;;
57385;SDS011;61487;56.494;21.014;2022-07-29T00:48:04;8.60;;;7.65;;
57385;SDS011;61487;56.494;21.014;2022-07-29T00:50:32;7.45;;;6.65;;
57385;SDS011;61487;56.494;21.014;2022-07-29T00:52:59;9.68;;;8.13;;
57385;SDS011;61487;56.494;21.014;2022-07-29T00:55:27;9.07;;;7.20;;
57385;SDS011;61487;56.494;21.014;2022-07-29T00:57:56;7.93;;;6.00;;
57385;SDS011;61487;56.494;21.014;2022-07-29T01:00:25;6.85;;;6.15;;
57385;SDS011;61487;56.494;21.014;2022-07-29T01:02:53;7.83;;;6.87;;
57385;SDS011;61487;56.494;21.014;2022-07-29T01:05:21;8.45;;;6.55;;
57385;SDS011;61487;56.494;21.014;2022-07-29T01:07:51;6.82;;;6.15;;
57385;SDS011;61487;56.494;21.014;2022-07-29T01:12:48;6.40;;;5.70;;
57385;SDS011;61487;56.494;21.014;2022-07-29T01:15:17;7.40;;;6.57;;
57385;SDS011;61487;56.494;21.014;2022-07-29T01:23:56;6.72;;;5.22;;
57385;SDS011;61487;56.494;21.014;2022-07-29T01:31:31;7.40;;;6.03;;
57385;SDS011;61487;56.494;21.014;2022-07-29T01:34:39;6.25;;;4.95;;
57385;SDS011;61487;56.494;21.014;2022-07-29T01:37:24;6.55;;;4.95;;
57385;SDS011;61487;56.494;21.014;2022-07-29T01:39:56;5.53;;;4.82;;
57385;SDS011;61487;56.494;21.014;2022-07-29T01:50:46;7.40;;;4.90;;
57385;SDS011;61487;56.494;21.014;2022-07-29T01:53:21;5.43;;;4.45;;
57385;SDS011;61487;56.494;21.014;2022-07-29T01:56:03;7.25;;;4.15;;
57385;SDS011;61487;56.494;21.014;2022-07-29T01:58:32;4.72;;;4.22;;
57385;SDS011;61487;56.494;21.014;2022-07-29T02:03:30;4.35;;;3.95;;
57385;SDS011;61487;56.494;21.014;2022-07-29T02:06:02;4.70;;;4.30;;
57385;SDS011;61487;56.494;21.014;2022-07-29T02:10:59;4.35;;;3.90;;
57385;SDS011;61487;56.494;21.014;2022-07-29T02:13:32;6.32;;;4.03;;
57385;SDS011;61487;56.494;21.014;2022-07-29T02:18:31;4.80;;;3.75;;
57385;SDS011;61487;56.494;21.014;2022-07-29T02:21:00;4.60;;;3.88;;
57385;SDS011;61487;56.494;21.014;2022-07-29T02:23:29;4.20;;;3.85;;
57385;SDS011;61487;56.494;21.014;2022-07-29T02:26:17;4.88;;;4.47;;
57385;SDS011;61487;56.494;21.014;2022-07-29T02:28:45;3.95;;;3.50;;
57385;SDS011;61487;56.494;21.014;2022-07-29T02:31:16;4.30;;;3.72;;
57385;SDS011;61487;56.494;21.014;2022-07-29T02:33:47;4.65;;;4.20;;
57385;SDS011;61487;56.494;21.014;2022-07-29T02:36:18;4.38;;;3.80;;
57385;SDS011;61487;56.494;21.014;2022-07-29T02:38:57;4.05;;;3.33;;
57385;SDS011;61487;56.494;21.014;2022-07-29T02:41:30;8.00;;;4.55;;
57385;SDS011;61487;56.494;21.014;2022-07-29T02:44:06;5.68;;;4.07;;
57385;SDS011;61487;56.494;21.014;2022-07-29T02:46:37;8.05;;;4.05;;
57385;SDS011;61487;56.494;21.014;2022-07-29T02:49:30;7.22;;;5.13;;
57385;SDS011;61487;56.494;21.014;2022-07-29T02:52:00;4.68;;;4.25;;
57385;SDS011;61487;56.494;21.014;2022-07-29T02:54:39;5.00;;;4.55;;
57385;SDS011;61487;56.494;21.014;2022-07-29T02:57:14;4.38;;;3.97;;
57385;SDS011;61487;56.494;21.014;2022-07-29T03:00:21;4.45;;;3.67;;
57385;SDS011;61487;56.494;21.014;2022-07-29T03:02:54;5.47;;;4.97;;
57385;SDS011;61487;56.494;21.014;2022-07-29T03:05:25;6.00;;;3.90;;
57385;SDS011;61487;56.494;21.014;2022-07-29T03:08:04;7.15;;;4.70;;
57385;SDS011;61487;56.494;21.014;2022-07-29T03:10:32;5.03;;;4.43;;
57385;SDS011;61487;56.494;21.014;2022-07-29T03:13:07;4.00;;;3.60;;
57385;SDS011;61487;56.494;21.014;2022-07-29T03:15:36;4.63;;;4.22;;
57385;SDS011;61487;56.494;21.014;2022-07-29T03:18:05;4.63;;;4.20;;
57385;SDS011;61487;56.494;21.014;2022-07-29T03:20:33;5.63;;;5.07;;
57385;SDS011;61487;56.494;21.014;2022-07-29T03:23:00;5.65;;;4.53;;
57385;SDS011;61487;56.494;21.014;2022-07-29T03:25:27;5.88;;;5.32;;
57385;SDS011;61487;56.494;21.014;2022-07-29T03:27:57;5.65;;;5.13;;
57385;SDS011;61487;56.494;21.014;2022-07-29T03:30:25;5.45;;;4.90;;
57385;SDS011;61487;56.494;21.014;2022-07-29T03:32:54;5.30;;;4.80;;
57385;SDS011;61487;56.494;21.014;2022-07-29T03:35:25;6.88;;;4.90;;
57385;SDS011;61487;56.494;21.014;2022-07-29T03:40:22;5.80;;;5.30;;
57385;SDS011;61487;56.494;21.014;2022-07-29T03:43:00;5.13;;;4.72;;
57385;SDS011;61487;56.494;21.014;2022-07-29T03:45:29;5.90;;;5.40;;
57385;SDS011;61487;56.494;21.014;2022-07-29T03:48:01;5.05;;;4.65;;
57385;SDS011;61487;56.494;21.014;2022-07-29T03:50:33;7.50;;;6.03;;
57385;SDS011;61487;56.494;21.014;2022-07-29T03:53:09;5.22;;;4.60;;
57385;SDS011;61487;56.494;21.014;2022-07-29T03:55:41;5.47;;;4.55;;
57385;SDS011;61487;56.494;21.014;2022-07-29T03:58:14;5.30;;;4.80;;
57385;SDS011;61487;56.494;21.014;2022-07-29T04:00:45;5.90;;;5.28;;
57385;SDS011;61487;56.494;21.014;2022-07-29T04:03:14;5.00;;;3.53;;
57385;SDS011;61487;56.494;21.014;2022-07-29T04:05:42;4.25;;;3.92;;
57385;SDS011;61487;56.494;21.014;2022-07-29T04:08:09;3.20;;;2.95;;
57385;SDS011;61487;56.494;21.014;2022-07-29T04:10:36;3.65;;;3.20;;
57385;SDS011;61487;56.494;21.014;2022-07-29T04:13:04;3.50;;;3.20;;
57385;SDS011;61487;56.494;21.014;2022-07-29T04:15:31;9.35;;;4.40;;
57385;SDS011;61487;56.494;21.014;2022-07-29T04:18:07;6.97;;;3.42;;
57385;SDS011;61487;56.494;21.014;2022-07-29T04:20:34;3.78;;;2.85;;
57385;SDS011;61487;56.494;21.014;2022-07-29T04:23:01;2.92;;;2.13;;
57385;SDS011;61487;56.494;21.014;2022-07-29T04:25:28;3.95;;;2.60;;
57385;SDS011;61487;56.494;21.014;2022-07-29T04:27:55;2.72;;;2.40;;
57385;SDS011;61487;56.494;21.014;2022-07-29T04:30:28;2.15;;;1.80;;
57385;SDS011;61487;56.494;21.014;2022-07-29T04:32:57;2.73;;;2.33;;
57385;SDS011;61487;56.494;21.014;2022-07-29T04:35:24;2.50;;;2.15;;
57385;SDS011;61487;56.494;21.014;2022-07-29T04:37:51;2.85;;;2.00;;
57385;SDS011;61487;56.494;21.014;2022-07-29T04:40:18;3.00;;;2.75;;
57385;SDS011;61487;56.494;21.014;2022-07-29T04:42:45;2.88;;;1.83;;
57385;SDS011;61487;56.494;21.014;2022-07-29T04:45:14;4.80;;;2.00;;
57385;SDS011;61487;56.494;21.014;2022-07-29T04:47:47;1.95;;;1.80;;
57385;SDS011;61487;56.494;21.014;2022-07-29T04:50:14;3.78;;;2.67;;
57385;SDS011;61487;56.494;21.014;2022-07-29T04:52:43;2.53;;;2.03;;
57385;SDS011;61487;56.494;21.014;2022-07-29T04:55:10;1.77;;;1.67;;
57385;SDS011;61487;56.494;21.014;2022-07-29T04:57:38;1.70;;;1.60;;
57385;SDS011;61487;56.494;21.014;2022-07-29T05:00:05;2.38;;;2.20;;
57385;SDS011;61487;56.494;21.014;2022-07-29T05:02:33;2.20;;;2.10;;
57385;SDS011;61487;56.494;21.014;2022-07-29T05:05:00;1.83;;;1.70;;
57385;SDS011;61487;56.494;21.014;2022-07-29T05:07:27;1.40;;;1.30;;
57385;SDS011;61487;56.494;21.014;2022-07-29T05:09:54;1.70;;;1.50;;
57385;SDS011;61487;56.494;21.014;2022-07-29T05:12:23;3.22;;;1.90;;
57385;SDS011;61487;56.494;21.014;2022-07-29T05:14:51;2.80;;;1.65;;
57385;SDS011;61487;56.494;21.014;2022-07-29T05:17:19;4.32;;;1.88;;
57385;SDS011;61487;56.494;21.014;2022-07-29T05:19:46;1.92;;;1.73;;
57385;SDS011;61487;56.494;21.014;2022-07-29T05:22:13;3.38;;;1.33;;
57385;SDS011;61487;56.494;21.014;2022-07-29T05:24:40;1.08;;;1.08;;
57385;SDS011;61487;56.494;21.014;2022-07-29T05:27:07;2.45;;;1.25;;
57385;SDS011;61487;56.494;21.014;2022-07-29T05:29:35;1.35;;;1.25;;
57385;SDS011;61487;56.494;21.014;2022-07-29T05:32:11;1.73;;;1.05;;
57385;SDS011;61487;56.494;21.014;2022-07-29T05:34:39;1.73;;;1.30;;
57385;SDS011;61487;56.494;21.014;2022-07-29T05:37:15;2.63;;;1.23;;
57385;SDS011;61487;56.494;21.014;2022-07-29T05:39:42;2.00;;;1.30;;
57385;SDS011;61487;56.494;21.014;2022-07-29T05:42:14;1.48;;;1.15;;
57385;SDS011;61487;56.494;21.014;2022-07-29T05:44:41;1.20;;;1.10;;
57385;SDS011;61487;56.494;21.014;2022-07-29T05:47:08;1.15;;;0.90;;
57385;SDS011;61487;56.494;21.014;2022-07-29T05:49:35;1.23;;;1.13;;
57385;SDS011;61487;56.494;21.014;2022-07-29T05:52:02;2.10;;;0.90;;
57385;SDS011;61487;56.494;21.014;2022-07-29T05:54:31;1.70;;;1.20;;
57385;SDS011;61487;56.494;21.014;2022-07-29T05:56:58;1.00;;;0.90;;
57385;SDS011;61487;56.494;21.014;2022-07-29T05:59:25;1.45;;;1.00;;
57385;SDS011;61487;56.494;21.014;2022-07-29T06:01:55;3.78;;;1.25;;
57385;SDS011;61487;56.494;21.014;2022-07-29T06:04:23;1.45;;;0.75;;
57385;SDS011;61487;56.494;21.014;2022-07-29T06:06:51;1.40;;;0.80;;
57385;SDS011;61487;56.494;21.014;2022-07-29T06:09:18;1.40;;;0.83;;
57385;SDS011;61487;56.494;21.014;2022-07-29T06:11:45;1.88;;;0.90;;
57385;SDS011;61487;56.494;21.014;2022-07-29T06:14:12;1.80;;;0.75;;
57385;SDS011;61487;56.494;21.014;2022-07-29T06:16:40;2.80;;;0.70;;
57385;SDS011;61487;56.494;21.014;2022-07-29T06:19:07;1.33;;;0.70;;
57385;SDS011;61487;56.494;21.014;2022-07-29T06:21:34;2.70;;;1.15;;
57385;SDS011;61487;56.494;21.014;2022-07-29T06:24:07;0.98;;;0.80;;
57385;SDS011;61487;56.494;21.014;2022-07-29T06:26:34;1.90;;;0.70;;
57385;SDS011;61487;56.494;21.014;2022-07-29T06:29:05;2.20;;;0.80;;
57385;SDS011;61487;56.494;21.014;2022-07-29T06:31:34;3.05;;;0.90;;
57385;SDS011;61487;56.494;21.014;2022-07-29T06:34:01;2.65;;;1.13;;
57385;SDS011;61487;56.494;21.014;2022-07-29T06:36:30;1.35;;;1.00;;
57385;SDS011;61487;56.494;21.014;2022-07-29T06:38:57;6.70;;;4.07;;
57385;SDS011;61487;56.494;21.014;2022-07-29T06:41:24;5.75;;;3.67;;
57385;SDS011;61487;56.494;21.014;2022-07-29T06:44:00;1.88;;;1.20;;
57385;SDS011;61487;56.494;21.014;2022-07-29T06:46:27;2.60;;;1.30;;
57385;SDS011;61487;56.494;21.014;2022-07-29T06:48:55;3.15;;;1.10;;
57385;SDS011;61487;56.494;21.014;2022-07-29T06:51:22;3.03;;;1.35;;
57385;SDS011;61487;56.494;21.014;2022-07-29T06:53:51;2.05;;;0.88;;
57385;SDS011;61487;56.494;21.014;2022-07-29T06:56:27;3.53;;;1.45;;
57385;SDS011;61487;56.494;21.014;2022-07-29T06:59:05;3.67;;;1.02;;
57385;SDS011;61487;56.494;21.014;2022-07-29T07:01:33;4.63;;;2.22;;
57385;SDS011;61487;56.494;21.014;2022-07-29T07:04:02;4.13;;;2.73;;
57385;SDS011;61487;56.494;21.014;2022-07-29T07:06:30;2.20;;;1.30;;
57385;SDS011;61487;56.494;21.014;2022-07-29T07:08:57;1.40;;;0.65;;
57385;SDS011;61487;56.494;21.014;2022-07-29T07:11:26;2.53;;;0.57;;
57385;SDS011;61487;56.494;21.014;2022-07-29T07:13:55;2.50;;;0.50;;
57385;SDS011;61487;56.494;21.014;2022-07-29T07:16:29;2.30;;;1.90;;
57385;SDS011;61487;56.494;21.014;2022-07-29T07:18:59;2.30;;;0.60;;
57385;SDS011;61487;56.494;21.014;2022-07-29T07:21:28;0.50;;;0.50;;
57385;SDS011;61487;56.494;21.014;2022-07-29T07:23:58;0.60;;;0.40;;
57385;SDS011;61487;56.494;21.014;2022-07-29T07:26:27;2.25;;;0.55;;
57385;SDS011;61487;56.494;21.014;2022-07-29T07:28:56;1.10;;;0.50;;
57385;SDS011;61487;56.494;21.014;2022-07-29T07:31:24;1.38;;;0.45;;
57385;SDS011;61487;56.494;21.014;2022-07-29T07:33:52;1.80;;;0.70;;
57385;SDS011;61487;56.494;21.014;2022-07-29T07:36:20;0.98;;;0.30;;
57385;SDS011;61487;56.494;21.014;2022-07-29T07:38:47;1.60;;;0.30;;
57385;SDS011;61487;56.494;21.014;2022-07-29T07:41:16;0.93;;;0.40;;
57385;SDS011;61487;56.494;21.014;2022-07-29T07:43:43;0.80;;;0.30;;
57385;SDS011;61487;56.494;21.014;2022-07-29T07:46:12;1.58;;;0.63;;
57385;SDS011;61487;56.494;21.014;2022-07-29T07:48:41;0.75;;;0.30;;
57385;SDS011;61487;56.494;21.014;2022-07-29T07:51:10;0.57;;;0.40;;
57385;SDS011;61487;56.494;21.014;2022-07-29T07:53:38;0.60;;;0.30;;
57385;SDS011;61487;56.494;21.014;2022-07-29T07:56:07;3.10;;;0.60;;
57385;SDS011;61487;56.494;21.014;2022-07-29T07:58:38;1.00;;;0.43;;
57385;SDS011;61487;56.494;21.014;2022-07-29T08:01:07;0.60;;;0.40;;
57385;SDS011;61487;56.494;21.014;2022-07-29T08:03:36;1.17;;;0.28;;
57385;SDS011;61487;56.494;21.014;2022-07-29T08:06:04;0.30;;;0.25;;
57385;SDS011;61487;56.494;21.014;2022-07-29T08:08:33;0.77;;;0.38;;
57385;SDS011;61487;56.494;21.014;2022-07-29T08:11:01;2.60;;;1.00;;
57385;SDS011;61487;56.494;21.014;2022-07-29T08:13:35;2.08;;;0.40;;
57385;SDS011;61487;56.494;21.014;2022-07-29T08:16:05;1.20;;;0.30;;
57385;SDS011;61487;56.494;21.014;2022-07-29T08:18:39;2.78;;;0.60;;
57385;SDS011;61487;56.494;21.014;2022-07-29T08:21:09;0.47;;;0.40;;
57385;SDS011;61487;56.494;21.014;2022-07-29T08:23:40;1.25;;;0.32;;
57385;SDS011;61487;56.494;21.014;2022-07-29T08:26:39;0.63;;;0.50;;
57385;SDS011;61487;56.494;21.014;2022-07-29T08:29:07;0.85;;;0.38;;
57385;SDS011;61487;56.494;21.014;2022-07-29T08:31:37;0.80;;;0.40;;
57385;SDS011;61487;56.494;21.014;2022-07-29T08:34:07;1.80;;;0.47;;
57385;SDS011;61487;56.494;21.014;2022-07-29T08:36:34;1.58;;;0.38;;
57385;SDS011;61487;56.494;21.014;2022-07-29T08:39:01;1.60;;;0.30;;
57385;SDS011;61487;56.494;21.014;2022-07-29T08:41:29;1.20;;;0.40;;
57385;SDS011;61487;56.494;21.014;2022-07-29T08:43:56;1.70;;;0.50;;
57385;SDS011;61487;56.494;21.014;2022-07-29T08:46:23;0.70;;;0.47;;
57385;SDS011;61487;56.494;21.014;2022-07-29T08:48:51;0.40;;;0.40;;
57385;SDS011;61487;56.494;21.014;2022-07-29T08:51:19;1.70;;;0.40;;
57385;SDS011;61487;56.494;21.014;2022-07-29T08:53:48;1.23;;;0.40;;
57385;SDS011;61487;56.494;21.014;2022-07-29T08:56:16;1.80;;;0.40;;
57385;SDS011;61487;56.494;21.014;2022-07-29T08:58:45;0.60;;;0.40;;
57385;SDS011;61487;56.494;21.014;2022-07-29T09:01:17;1.03;;;0.20;;
57385;SDS011;61487;56.494;21.014;2022-07-29T09:04:02;1.73;;;0.65;;
57385;SDS011;61487;56.494;21.014;2022-07-29T09:06:31;0.85;;;0.25;;
57385;SDS011;61487;56.494;21.014;2022-07-29T09:09:03;0.95;;;0.38;;
57385;SDS011;61487;56.494;21.014;2022-07-29T09:11:32;1.20;;;0.43;;
57385;SDS011;61487;56.494;21.014;2022-07-29T09:14:00;2.13;;;0.50;;
57385;SDS011;61487;56.494;21.014;2022-07-29T09:16:43;0.30;;;0.30;;
57385;SDS011;61487;56.494;21.014;2022-07-29T09:19:20;0.65;;;0.40;;
57385;SDS011;61487;56.494;21.014;2022-07-29T09:21:51;1.02;;;0.52;;
57385;SDS011;61487;56.494;21.014;2022-07-29T09:24:45;0.63;;;0.38;;
57385;SDS011;61487;56.494;21.014;2022-07-29T09:27:20;1.00;;;0.57;;
57385;SDS011;61487;56.494;21.014;2022-07-29T09:29:59;0.50;;;0.50;;
57385;SDS011;61487;56.494;21.014;2022-07-29T09:32:31;3.03;;;0.80;;
57385;SDS011;61487;56.494;21.014;2022-07-29T09:35:21;0.70;;;0.60;;
57385;SDS011;61487;56.494;21.014;2022-07-29T09:37:50;0.35;;;0.30;;
57385;SDS011;61487;56.494;21.014;2022-07-29T09:40:22;0.45;;;0.40;;
57385;SDS011;61487;56.494;21.014;2022-07-29T09:42:50;3.13;;;1.57;;
57385;SDS011;61487;56.494;21.014;2022-07-29T09:45:29;0.28;;;0.28;;
57385;SDS011;61487;56.494;21.014;2022-07-29T09:47:58;0.88;;;0.45;;
57385;SDS011;61487;56.494;21.014;2022-07-29T09:50:39;1.33;;;0.73;;
57385;SDS011;61487;56.494;21.014;2022-07-29T09:53:07;2.42;;;1.48;;
57385;SDS011;61487;56.494;21.014;2022-07-29T09:55:50;1.30;;;0.40;;
57385;SDS011;61487;56.494;21.014;2022-07-29T09:58:19;1.65;;;0.40;;
57385;SDS011;61487;56.494;21.014;2022-07-29T10:00:48;0.57;;;0.30;;
57385;SDS011;61487;56.494;21.014;2022-07-29T10:03:16;0.70;;;0.30;;
57385;SDS011;61487;56.494;21.014;2022-07-29T10:05:44;1.80;;;0.32;;
57385;SDS011;61487;56.494;21.014;2022-07-29T10:08:12;0.90;;;0.60;;
57385;SDS011;61487;56.494;21.014;2022-07-29T10:10:40;0.88;;;0.45;;
57385;SDS011;61487;56.494;21.014;2022-07-29T10:13:10;1.48;;;0.77;;
57385;SDS011;61487;56.494;21.014;2022-07-29T10:15:42;1.90;;;0.70;;
57385;SDS011;61487;56.494;21.014;2022-07-29T10:18:12;1.43;;;1.10;;
57385;SDS011;61487;56.494;21.014;2022-07-29T10:20:41;2.53;;;1.70;;
57385;SDS011;61487;56.494;21.014;2022-07-29T10:23:08;2.63;;;1.33;;
57385;SDS011;61487;56.494;21.014;2022-07-29T10:25:37;1.10;;;0.40;;
57385;SDS011;61487;56.494;21.014;2022-07-29T10:28:05;1.30;;;0.35;;
57385;SDS011;61487;56.494;21.014;2022-07-29T10:30:32;1.40;;;0.50;;
57385;SDS011;61487;56.494;21.014;2022-07-29T10:36:04;1.75;;;1.00;;
57385;SDS011;61487;56.494;21.014;2022-07-29T10:41:49;1.02;;;0.28;;
57385;SDS011;61487;56.494;21.014;2022-07-29T10:44:41;1.48;;;0.73;;
57385;SDS011;61487;56.494;21.014;2022-07-29T10:47:19;0.80;;;0.40;;
57385;SDS011;61487;56.494;21.014;2022-07-29T10:50:01;0.98;;;0.43;;
57385;SDS011;61487;56.494;21.014;2022-07-29T10:55:37;3.08;;;0.50;;
57385;SDS011;61487;56.494;21.014;2022-07-29T10:58:16;0.88;;;0.40;;
57385;SDS011;61487;56.494;21.014;2022-07-29T11:00:49;2.08;;;0.60;;
57385;SDS011;61487;56.494;21.014;2022-07-29T11:06:15;1.65;;;0.40;;
57385;SDS011;61487;56.494;21.014;2022-07-29T11:12:00;0.77;;;0.40;;
57385;SDS011;61487;56.494;21.014;2022-07-29T11:17:29;0.90;;;0.50;;
57385;SDS011;61487;56.494;21.014;2022-07-29T11:20:30;1.35;;;0.40;;
57385;SDS011;61487;56.494;21.014;2022-07-29T11:22:59;1.30;;;0.50;;
57385;SDS011;61487;56.494;21.014;2022-07-29T11:25:29;1.70;;;0.52;;
57385;SDS011;61487;56.494;21.014;2022-07-29T11:28:18;1.45;;;0.60;;
57385;SDS011;61487;56.494;21.014;2022-07-29T11:30:51;0.68;;;0.40;;
57385;SDS011;61487;56.494;21.014;2022-07-29T11:33:32;1.10;;;0.68;;
57385;SDS011;61487;56.494;21.014;2022-07-29T11:36:19;1.40;;;0.68;;
57385;SDS011;61487;56.494;21.014;2022-07-29T11:39:10;2.10;;;1.00;;
57385;SDS011;61487;56.494;21.014;2022-07-29T11:48:00;2.17;;;0.85;;
57385;SDS011;61487;56.494;21.014;2022-07-29T11:50:47;1.13;;;0.70;;
57385;SDS011;61487;56.494;21.014;2022-07-29T11:53:15;2.05;;;0.95;;
57385;SDS011;61487;56.494;21.014;2022-07-29T11:55:42;0.95;;;0.30;;
57385;SDS011;61487;56.494;21.014;2022-07-29T11:58:21;1.03;;;0.40;;
57385;SDS011;61487;56.494;21.014;2022-07-29T12:00:52;1.13;;;0.68;;
57385;SDS011;61487;56.494;21.014;2022-07-29T12:03:25;1.73;;;0.40;;
57385;SDS011;61487;56.494;21.014;2022-07-29T12:06:01;1.10;;;0.40;;
57385;SDS011;61487;56.494;21.014;2022-07-29T12:08:41;0.80;;;0.65;;
57385;SDS011;61487;56.494;21.014;2022-07-29T12:11:17;0.60;;;0.30;;
57385;SDS011;61487;56.494;21.014;2022-07-29T12:13:47;1.83;;;0.40;;
57385;SDS011;61487;56.494;21.014;2022-07-29T12:16:18;0.95;;;0.35;;
57385;SDS011;61487;56.494;21.014;2022-07-29T12:18:58;0.80;;;0.47;;
57385;SDS011;61487;56.494;21.014;2022-07-29T12:21:27;1.08;;;0.40;;
57385;SDS011;61487;56.494;21.014;2022-07-29T12:24:21;1.83;;;0.50;;
57385;SDS011;61487;56.494;21.014;2022-07-29T12:26:53;1.20;;;0.40;;
57385;SDS011;61487;56.494;21.014;2022-07-29T12:29:24;1.48;;;0.70;;
57385;SDS011;61487;56.494;21.014;2022-07-29T12:32:03;0.60;;;0.43;;
57385;SDS011;61487;56.494;21.014;2022-07-29T12:34:45;2.20;;;0.45;;
57385;SDS011;61487;56.494;21.014;2022-07-29T12:37:12;0.57;;;0.38;;
57385;SDS011;61487;56.494;21.014;2022-07-29T12:39:39;1.35;;;0.50;;
57385;SDS011;61487;56.494;21.014;2022-07-29T12:42:13;1.02;;;0.70;;
57385;SDS011;61487;56.494;21.014;2022-07-29T12:44:44;0.88;;;0.50;;
57385;SDS011;61487;56.494;21.014;2022-07-29T12:47:13;1.20;;;0.50;;
57385;SDS011;61487;56.494;21.014;2022-07-29T12:49:40;0.60;;;0.47;;
57385;SDS011;61487;56.494;21.014;2022-07-29T12:52:30;0.63;;;0.50;;
57385;SDS011;61487;56.494;21.014;2022-07-29T12:54:59;0.80;;;0.67;;
57385;SDS011;61487;56.494;21.014;2022-07-29T12:57:27;0.60;;;0.50;;
57385;SDS011;61487;56.494;21.014;2022-07-29T13:00:04;1.08;;;0.52;;
57385;SDS011;61487;56.494;21.014;2022-07-29T13:02:40;1.67;;;0.60;;
57385;SDS011;61487;56.494;21.014;2022-07-29T13:05:10;1.10;;;0.40;;
57385;SDS011;61487;56.494;21.014;2022-07-29T13:07:38;2.70;;;0.50;;
57385;SDS011;61487;56.494;21.014;2022-07-29T13:10:24;2.30;;;0.50;;
57385;SDS011;61487;56.494;21.014;2022-07-29T13:13:01;1.30;;;0.47;;
57385;SDS011;61487;56.494;21.014;2022-07-29T13:15:30;0.68;;;0.40;;
57385;SDS011;61487;56.494;21.014;2022-07-29T13:17:58;0.80;;;0.50;;
57385;SDS011;61487;56.494;21.014;2022-07-29T13:20:29;1.05;;;0.40;;
57385;SDS011;61487;56.494;21.014;2022-07-29T13:22:58;1.42;;;0.50;;
57385;SDS011;61487;56.494;21.014;2022-07-29T13:25:28;0.60;;;0.60;;
57385;SDS011;61487;56.494;21.014;2022-07-29T13:27:59;2.55;;;0.60;;
57385;SDS011;61487;56.494;21.014;2022-07-29T13:30:28;1.35;;;0.90;;
57385;SDS011;61487;56.494;21.014;2022-07-29T13:32:55;1.52;;;0.63;;
57385;SDS011;61487;56.494;21.014;2022-07-29T13:35:22;2.05;;;1.30;;
57385;SDS011;61487;56.494;21.014;2022-07-29T13:38:11;1.40;;;0.63;;
57385;SDS011;61487;56.494;21.014;2022-07-29T13:40:38;1.60;;;0.60;;
57385;SDS011;61487;56.494;21.014;2022-07-29T13:43:08;0.60;;;0.40;;
57385;SDS011;61487;56.494;21.014;2022-07-29T13:45:36;2.38;;;0.52;;
57385;SDS011;61487;56.494;21.014;2022-07-29T13:48:03;1.13;;;0.60;;
57385;SDS011;61487;56.494;21.014;2022-07-29T13:50:36;1.05;;;0.57;;
57385;SDS011;61487;56.494;21.014;2022-07-29T13:53:05;1.42;;;0.90;;
57385;SDS011;61487;56.494;21.014;2022-07-29T13:55:32;1.92;;;0.60;;
57385;SDS011;61487;56.494;21.014;2022-07-29T13:57:59;1.60;;;0.70;;
57385;SDS011;61487;56.494;21.014;2022-07-29T14:00:29;3.95;;;0.50;;
57385;SDS011;61487;56.494;21.014;2022-07-29T14:02:57;1.40;;;0.52;;
57385;SDS011;61487;56.494;21.014;2022-07-29T14:05:24;1.13;;;0.60;;
57385;SDS011;61487;56.494;21.014;2022-07-29T14:07:55;0.80;;;0.60;;
57385;SDS011;61487;56.494;21.014;2022-07-29T14:10:23;1.40;;;0.60;;
57385;SDS011;61487;56.494;21.014;2022-07-29T14:12:56;0.47;;;0.40;;
57385;SDS011;61487;56.494;21.014;2022-07-29T14:15:24;3.58;;;2.65;;
57385;SDS011;61487;56.494;21.014;2022-07-29T14:17:51;0.77;;;0.50;;
57385;SDS011;61487;56.494;21.014;2022-07-29T14:20:18;0.45;;;0.30;;
57385;SDS011;61487;56.494;21.014;2022-07-29T14:22:45;1.93;;;0.57;;
57385;SDS011;61487;56.494;21.014;2022-07-29T14:25:13;1.52;;;0.52;;
57385;SDS011;61487;56.494;21.014;2022-07-29T14:27:41;0.77;;;0.50;;
57385;SDS011;61487;56.494;21.014;2022-07-29T14:30:13;1.30;;;0.63;;
57385;SDS011;61487;56.494;21.014;2022-07-29T14:32:40;1.83;;;0.40;;
57385;SDS011;61487;56.494;21.014;2022-07-29T14:35:07;1.10;;;0.52;;
57385;SDS011;61487;56.494;21.014;2022-07-29T14:37:34;0.65;;;0.30;;
57385;SDS011;61487;56.494;21.014;2022-07-29T14:40:06;1.00;;;0.70;;
57385;SDS011;61487;56.494;21.014;2022-07-29T14:42:34;1.23;;;0.70;;
57385;SDS011;61487;56.494;21.014;2022-07-29T14:45:02;0.73;;;0.47;;
57385;SDS011;61487;56.494;21.014;2022-07-29T14:47:33;0.60;;;0.38;;
57385;SDS011;61487;56.494;21.014;2022-07-29T14:50:01;0.80;;;0.47;;
57385;SDS011;61487;56.494;21.014;2022-07-29T14:52:29;1.38;;;0.52;;
57385;SDS011;61487;56.494;21.014;2022-07-29T14:54:56;3.33;;;0.60;;
57385;SDS011;61487;56.494;21.014;2022-07-29T14:57:23;2.00;;;0.65;;
57385;SDS011;61487;56.494;21.014;2022-07-29T14:59:50;12.55;;;2.65;;
57385;SDS011;61487;56.494;21.014;2022-07-29T15:02:21;3.28;;;1.27;;
57385;SDS011;61487;56.494;21.014;2022-07-29T15:05:11;2.22;;;1.55;;
57385;SDS011;61487;56.494;21.014;2022-07-29T15:07:43;2.28;;;0.68;;
57385;SDS011;61487;56.494;21.014;2022-07-29T15:10:10;1.50;;;0.80;;
57385;SDS011;61487;56.494;21.014;2022-07-29T15:12:41;1.20;;;0.43;;
57385;SDS011;61487;56.494;21.014;2022-07-29T15:15:08;2.80;;;0.80;;
57385;SDS011;61487;56.494;21.014;2022-07-29T15:17:35;0.95;;;0.60;;
57385;SDS011;61487;56.494;21.014;2022-07-29T15:20:02;1.70;;;0.63;;
57385;SDS011;61487;56.494;21.014;2022-07-29T15:22:30;1.83;;;0.65;;
57385;SDS011;61487;56.494;21.014;2022-07-29T15:24:57;4.10;;;3.80;;
57385;SDS011;61487;56.494;21.014;2022-07-29T15:27:37;2.60;;;2.25;;
57385;SDS011;61487;56.494;21.014;2022-07-29T15:30:04;1.08;;;0.88;;
57385;SDS011;61487;56.494;21.014;2022-07-29T15:32:32;1.60;;;1.02;;
57385;SDS011;61487;56.494;21.014;2022-07-29T15:34:59;1.13;;;1.03;;
57385;SDS011;61487;56.494;21.014;2022-07-29T15:37:26;2.22;;;1.30;;
57385;SDS011;61487;56.494;21.014;2022-07-29T15:40:14;0.90;;;0.70;;
57385;SDS011;61487;56.494;21.014;2022-07-29T15:42:43;1.63;;;0.60;;
57385;SDS011;61487;56.494;21.014;2022-07-29T15:45:12;3.97;;;2.45;;
57385;SDS011;61487;56.494;21.014;2022-07-29T15:47:40;0.90;;;0.80;;
57385;SDS011;61487;56.494;21.014;2022-07-29T15:50:07;1.70;;;0.97;;
57385;SDS011;61487;56.494;21.014;2022-07-29T15:52:39;1.30;;;0.50;;